Terminal Aerodrome Forecast
Issued by NWS

Home | Current Version | Previous Version | Text Only | Print | Product List | Glossary On
Versions: 1 2 3 4 5 6 7 8 9 10 11 12 13
715
FTUS42 TJSJ 240530
TAFNCM
TAF
TNCM 240530Z 2406/2506 12010KT P6SM VCSH SCT020 SCT040
     FM241300 13012KT P6SM VCSH SCT025 BKN050
     FM242300 12010KT P6SM SCT020 BKN040=

USA.gov is the U.S. government's official web portal to all federal, state and local government web resources and services.